createdAt,value
2023-01-21T00:00:08.188Z,-2.03
2023-01-21T00:01:08.139Z,-2.02
2023-01-21T00:02:08.159Z,-2.01
2023-01-21T00:03:08.182Z,-2.01
2023-01-21T00:04:08.104Z,-2.03
2023-01-21T00:05:08.113Z,-2.06
2023-01-21T00:06:08.125Z,-2.09
2023-01-21T00:07:08.103Z,-2.10
2023-01-21T00:08:08.052Z,-2.10
2023-01-21T00:09:08.057Z,-2.09
2023-01-21T00:10:08.039Z,-2.09
2023-01-21T00:11:08.028Z,-2.09
2023-01-21T00:12:08.019Z,-2.10
2023-01-21T00:13:08.009Z,-2.10
2023-01-21T00:14:07.986Z,-2.09
2023-01-21T00:15:07.988Z,-2.09
2023-01-21T00:16:08.008Z,-2.08
2023-01-21T00:17:07.962Z,-2.07
2023-01-21T00:18:07.940Z,-2.06
2023-01-21T00:19:07.910Z,-2.05
2023-01-21T00:20:07.918Z,-2.04
2023-01-21T00:21:07.911Z,-2.03
2023-01-21T00:22:07.878Z,-2.02
2023-01-21T00:23:07.877Z,-2.01
2023-01-21T00:24:07.862Z,-2.00
2023-01-21T00:25:07.849Z,-2.02
2023-01-21T00:26:07.831Z,-2.04
2023-01-21T00:27:07.826Z,-2.08
2023-01-21T00:28:07.821Z,-2.09
2023-01-21T00:29:07.812Z,-2.09
2023-01-21T00:30:07.765Z,-2.09
2023-01-21T00:31:07.924Z,-2.08
2023-01-21T00:32:07.741Z,-2.08
2023-01-21T00:33:07.740Z,-2.08
2023-01-21T00:34:07.720Z,-2.09
2023-01-21T00:35:07.728Z,-2.09
2023-01-21T00:36:07.691Z,-2.10
2023-01-21T00:37:07.689Z,-2.11
2023-01-21T00:38:07.685Z,-2.13
2023-01-21T00:39:07.695Z,-2.15
2023-01-21T00:40:07.657Z,-2.15
2023-01-21T00:41:07.682Z,-2.16
2023-01-21T00:42:07.623Z,-2.16
2023-01-21T00:43:07.638Z,-2.15
2023-01-21T00:44:07.603Z,-2.14
2023-01-21T00:45:07.602Z,-2.14
2023-01-21T00:46:07.621Z,-2.14
2023-01-21T00:47:07.584Z,-2.13
2023-01-21T00:48:07.540Z,-2.13
2023-01-21T00:49:07.527Z,-2.13
2023-01-21T00:50:07.539Z,-2.14
2023-01-21T00:51:07.526Z,-2.15
2023-01-21T00:52:07.496Z,-2.15
2023-01-21T00:53:07.489Z,-2.16
2023-01-21T00:54:07.460Z,-2.16
2023-01-21T00:55:07.450Z,-2.16
2023-01-21T00:56:07.468Z,-2.16
2023-01-21T00:57:07.445Z,-2.16
2023-01-21T00:58:07.406Z,-2.15
2023-01-21T00:59:07.439Z,-2.15
2023-01-21T01:00:07.408Z,-2.14
2023-01-21T01:01:07.620Z,-2.15
2023-01-21T01:02:07.375Z,-2.15
2023-01-21T01:03:07.347Z,-2.15
2023-01-21T01:04:07.368Z,-2.15
2023-01-21T01:05:07.344Z,-2.14
2023-01-21T01:06:07.334Z,-2.13
2023-01-21T01:07:07.331Z,-2.12
2023-01-21T01:08:07.307Z,-2.12
2023-01-21T01:09:07.287Z,-2.12
2023-01-21T01:10:07.254Z,-2.12
2023-01-21T01:11:07.250Z,-2.12
2023-01-21T01:12:07.254Z,-2.11
2023-01-21T01:13:07.219Z,-2.11
2023-01-21T01:14:07.209Z,-2.11
2023-01-21T01:15:07.216Z,-2.11
2023-01-21T01:16:07.261Z,-2.10
2023-01-21T01:17:07.171Z,-2.09
2023-01-21T01:18:07.149Z,-2.09
2023-01-21T01:19:07.176Z,-2.10
2023-01-21T01:20:07.155Z,-2.09
2023-01-21T01:21:07.128Z,-2.09
2023-01-21T01:22:07.100Z,-2.08
2023-01-21T01:23:07.120Z,-2.07
2023-01-21T01:24:07.141Z,-2.07
2023-01-21T01:25:07.113Z,-2.06
2023-01-21T01:26:07.185Z,-2.06
2023-01-21T01:27:07.112Z,-2.05
2023-01-21T01:28:07.181Z,-2.04
2023-01-21T01:29:07.041Z,-2.03
2023-01-21T01:30:07.031Z,-2.02
2023-01-21T01:31:07.180Z,-2.02
2023-01-21T01:32:07.020Z,-2.02
2023-01-21T01:33:06.985Z,-2.03
2023-01-21T01:34:07.023Z,-2.03
2023-01-21T01:35:06.984Z,-2.04
2023-01-21T01:36:06.973Z,-2.04
2023-01-21T01:37:06.927Z,-2.03
2023-01-21T01:38:06.901Z,-2.02
2023-01-21T01:39:06.916Z,-2.02
2023-01-21T01:40:06.914Z,-2.00
2023-01-21T01:41:06.862Z,-1.99
2023-01-21T01:42:06.869Z,-1.98
2023-01-21T01:43:06.897Z,-1.98
2023-01-21T01:44:06.835Z,-1.97
2023-01-21T01:45:06.810Z,-1.96
2023-01-21T01:46:06.833Z,-1.95
2023-01-21T01:47:06.807Z,-1.95
2023-01-21T01:48:06.817Z,-1.94
2023-01-21T01:49:06.784Z,-1.94
2023-01-21T01:50:06.764Z,-1.93
2023-01-21T01:51:06.827Z,-1.93
2023-01-21T01:52:06.737Z,-1.93
2023-01-21T01:53:06.729Z,-1.92
2023-01-21T01:54:06.722Z,-1.92
2023-01-21T01:55:06.715Z,-1.91
2023-01-21T01:56:06.713Z,-1.90
2023-01-21T01:57:06.695Z,-1.89
2023-01-21T01:58:06.649Z,-1.88
2023-01-21T01:59:06.637Z,-1.86
2023-01-21T02:00:06.646Z,-1.85
2023-01-21T02:01:06.608Z,-1.84
2023-01-21T02:02:06.603Z,-1.82
2023-01-21T02:03:06.629Z,-1.81
2023-01-21T02:04:06.583Z,-1.80
2023-01-21T02:05:06.579Z,-1.80
2023-01-21T02:06:06.550Z,-1.78
2023-01-21T02:07:06.551Z,-1.77
2023-01-21T02:08:06.522Z,-1.76
2023-01-21T02:09:06.502Z,-1.75
2023-01-21T02:10:06.507Z,-1.74
2023-01-21T02:11:06.502Z,-1.73
2023-01-21T02:12:06.474Z,-1.72
2023-01-21T02:13:06.453Z,-1.71
2023-01-21T02:14:06.459Z,-1.70
2023-01-21T02:15:06.463Z,-1.69
2023-01-21T02:16:06.539Z,-1.68
2023-01-21T02:17:06.428Z,-1.68
2023-01-21T02:18:06.425Z,-1.67
2023-01-21T02:19:06.393Z,-1.67
2023-01-21T02:20:06.424Z,-1.66
2023-01-21T02:21:06.363Z,-1.65
2023-01-21T02:22:06.362Z,-1.64
2023-01-21T02:23:06.331Z,-1.62
2023-01-21T02:24:06.333Z,-1.61
2023-01-21T02:25:06.315Z,-1.60
2023-01-21T02:26:06.316Z,-1.59
2023-01-21T02:27:06.295Z,-1.58
2023-01-21T02:28:06.282Z,-1.57
2023-01-21T02:29:06.253Z,-1.56
2023-01-21T02:30:06.260Z,-1.55
2023-01-21T02:31:06.315Z,-1.54
2023-01-21T02:32:06.220Z,-1.53
2023-01-21T02:33:06.197Z,-1.52
2023-01-21T02:34:06.196Z,-1.51
2023-01-21T02:35:06.201Z,-1.50
2023-01-21T02:36:06.199Z,-1.49
2023-01-21T02:37:06.180Z,-1.49
2023-01-21T02:38:06.164Z,-1.48
2023-01-21T02:39:06.136Z,-1.48
2023-01-21T02:40:06.123Z,-1.47
2023-01-21T02:41:06.099Z,-1.47
2023-01-21T02:42:06.102Z,-1.46
2023-01-21T02:43:06.095Z,-1.45
2023-01-21T02:44:06.067Z,-1.45
2023-01-21T02:45:06.045Z,-1.44
2023-01-21T02:46:06.036Z,-1.44
2023-01-21T02:47:06.028Z,-1.43
2023-01-21T02:48:06.227Z,-1.42
2023-01-21T02:49:06.020Z,-1.41
2023-01-21T02:50:06.024Z,-1.40
2023-01-21T02:51:06.022Z,-1.39
2023-01-21T02:52:05.996Z,-1.38
2023-01-21T02:53:05.950Z,-1.38
2023-01-21T02:54:05.955Z,-1.37
2023-01-21T02:55:05.931Z,-1.37
2023-01-21T02:56:05.933Z,-1.36
2023-01-21T02:57:05.941Z,-1.36
2023-01-21T02:58:05.896Z,-1.35
2023-01-21T02:59:05.871Z,-1.35
2023-01-21T03:00:05.879Z,-1.34
2023-01-21T03:01:05.935Z,-1.33
2023-01-21T03:02:05.880Z,-1.33
2023-01-21T03:03:05.845Z,-1.32
2023-01-21T03:04:05.807Z,-1.31
2023-01-21T03:05:05.811Z,-1.30
2023-01-21T03:06:05.801Z,-1.29
2023-01-21T03:07:05.760Z,-1.29
2023-01-21T03:08:05.797Z,-1.28
2023-01-21T03:09:05.756Z,-1.28
2023-01-21T03:10:05.729Z,-1.28
2023-01-21T03:11:05.726Z,-1.28
2023-01-21T03:12:05.743Z,-1.27
2023-01-21T03:13:05.696Z,-1.27
2023-01-21T03:14:05.687Z,-1.26
2023-01-21T03:15:05.670Z,-1.26
2023-01-21T03:16:05.735Z,-1.25
2023-01-21T03:17:05.634Z,-1.24
2023-01-21T03:18:05.629Z,-1.23
2023-01-21T03:19:05.646Z,-1.22
2023-01-21T03:20:05.702Z,-1.22
2023-01-21T03:21:05.582Z,-1.22
2023-01-21T03:22:05.567Z,-1.21
2023-01-21T03:23:05.551Z,-1.21
2023-01-21T03:24:05.592Z,-1.21
2023-01-21T03:25:05.557Z,-1.20
2023-01-21T03:26:05.518Z,-1.20
2023-01-21T03:27:05.546Z,-1.20
2023-01-21T03:28:05.551Z,-1.19
2023-01-21T03:29:05.477Z,-1.19
2023-01-21T03:30:05.478Z,-1.19
2023-01-21T03:31:05.640Z,-1.19
2023-01-21T03:32:05.451Z,-1.18
2023-01-21T03:33:05.455Z,-1.18
2023-01-21T03:34:05.421Z,-1.18
2023-01-21T03:35:05.420Z,-1.17
2023-01-21T03:36:05.408Z,-1.16
2023-01-21T03:37:05.404Z,-1.16
2023-01-21T03:38:05.422Z,-1.16
2023-01-21T03:39:05.385Z,-1.15
2023-01-21T03:40:05.344Z,-1.15
2023-01-21T03:41:05.349Z,-1.15
2023-01-21T03:42:05.352Z,-1.15
2023-01-21T03:43:05.340Z,-1.15
2023-01-21T03:44:05.319Z,-1.15
2023-01-21T03:45:05.294Z,-1.15
2023-01-21T03:46:05.354Z,-1.16
2023-01-21T03:47:05.264Z,-1.16
2023-01-21T03:48:05.279Z,-1.17
2023-01-21T03:49:05.240Z,-1.17
2023-01-21T03:50:05.256Z,-1.17
2023-01-21T03:51:05.273Z,-1.17
2023-01-21T03:52:05.215Z,-1.18
2023-01-21T03:53:05.209Z,-1.18
2023-01-21T03:54:05.242Z,-1.18
2023-01-21T03:55:05.183Z,-1.17
2023-01-21T03:56:05.161Z,-1.17
2023-01-21T03:57:05.122Z,-1.17
2023-01-21T03:58:05.135Z,-1.17
2023-01-21T03:59:05.109Z,-1.17
2023-01-21T04:00:05.112Z,-1.17
2023-01-21T04:01:05.160Z,-1.17
2023-01-21T04:02:05.097Z,-1.16
2023-01-21T04:03:05.069Z,-1.16
2023-01-21T04:04:05.040Z,-1.16
2023-01-21T04:05:05.032Z,-1.16
2023-01-21T04:06:05.060Z,-1.16
2023-01-21T04:07:05.026Z,-1.15
2023-01-21T04:08:05.006Z,-1.14
2023-01-21T04:09:05.000Z,-1.14
2023-01-21T04:10:05.007Z,-1.13
2023-01-21T04:11:04.950Z,-1.12
2023-01-21T04:12:04.951Z,-1.12
2023-01-21T04:13:04.950Z,-1.11
2023-01-21T04:14:04.913Z,-1.11
2023-01-21T04:15:05.603Z,-1.11
2023-01-21T04:16:04.982Z,-1.10
2023-01-21T04:17:04.919Z,-1.10
2023-01-21T04:18:04.892Z,-1.10
2023-01-21T04:19:04.889Z,-1.10
2023-01-21T04:20:04.860Z,-1.10
2023-01-21T04:21:04.843Z,-1.10
2023-01-21T04:22:04.816Z,-1.10
2023-01-21T04:23:04.805Z,-1.10
2023-01-21T04:24:04.812Z,-1.10
2023-01-21T04:25:04.818Z,-1.09
2023-01-21T04:26:04.776Z,-1.09
2023-01-21T04:27:04.756Z,-1.09
2023-01-21T04:28:04.779Z,-1.09
2023-01-21T04:29:04.732Z,-1.09
2023-01-21T04:30:04.707Z,-1.10
2023-01-21T04:31:04.735Z,-1.10
2023-01-21T04:32:04.721Z,-1.10
2023-01-21T04:33:04.696Z,-1.10
2023-01-21T04:34:04.683Z,-1.10
2023-01-21T04:35:04.639Z,-1.10
2023-01-21T04:36:04.664Z,-1.10
2023-01-21T04:37:04.654Z,-1.09
2023-01-21T04:38:04.621Z,-1.09
2023-01-21T04:39:04.602Z,-1.09
2023-01-21T04:40:04.659Z,-1.08
2023-01-21T04:41:04.575Z,-1.07
2023-01-21T04:42:04.601Z,-1.07
2023-01-21T04:43:04.553Z,-1.07
2023-01-21T04:44:04.534Z,-1.06
2023-01-21T04:45:04.533Z,-1.06
2023-01-21T04:46:04.614Z,-1.06
2023-01-21T04:47:04.527Z,-1.06
2023-01-21T04:48:04.501Z,-1.06
2023-01-21T04:49:04.490Z,-1.06
2023-01-21T04:50:04.464Z,-1.06
2023-01-21T04:51:04.456Z,-1.06
2023-01-21T04:52:04.448Z,-1.06
2023-01-21T04:53:04.424Z,-1.06
2023-01-21T04:54:04.427Z,-1.06
2023-01-21T04:55:04.398Z,-1.07
2023-01-21T04:56:04.379Z,-1.07
2023-01-21T04:57:04.361Z,-1.07
2023-01-21T04:58:04.369Z,-1.07
2023-01-21T04:59:04.356Z,-1.06
2023-01-21T05:00:04.355Z,-1.06
2023-01-21T05:01:04.335Z,-1.05
2023-01-21T05:02:04.316Z,-1.05
2023-01-21T05:03:04.315Z,-1.04
2023-01-21T05:04:04.270Z,-1.04
2023-01-21T05:05:04.259Z,-1.03
2023-01-21T05:06:04.272Z,-1.03
2023-01-21T05:07:04.229Z,-1.02
2023-01-21T05:08:04.222Z,-1.02
2023-01-21T05:09:04.239Z,-1.02
2023-01-21T05:10:04.203Z,-1.02
2023-01-21T05:11:04.176Z,-1.03
2023-01-21T05:12:04.180Z,-1.03
2023-01-21T05:13:04.157Z,-1.04
2023-01-21T05:14:04.151Z,-1.04
2023-01-21T05:15:04.138Z,-1.05
2023-01-21T05:16:04.224Z,-1.06
2023-01-21T05:17:04.189Z,-1.06
2023-01-21T05:18:04.096Z,-1.07
2023-01-21T05:19:04.089Z,-1.08
2023-01-21T05:20:04.080Z,-1.09
2023-01-21T05:21:04.083Z,-1.10
2023-01-21T05:22:04.084Z,-1.11
2023-01-21T05:23:04.029Z,-1.12
2023-01-21T05:24:04.032Z,-1.13
2023-01-21T05:25:04.019Z,-1.14
2023-01-21T05:26:04.006Z,-1.13
2023-01-21T05:27:04.000Z,-1.13
2023-01-21T05:28:03.984Z,-1.13
2023-01-21T05:29:03.972Z,-1.12
2023-01-21T05:30:03.964Z,-1.12
2023-01-21T05:31:04.110Z,-1.11
2023-01-21T05:32:03.931Z,-1.09
2023-01-21T05:33:03.935Z,-1.08
2023-01-21T05:34:03.922Z,-1.07
2023-01-21T05:35:03.873Z,-1.06
2023-01-21T05:36:03.881Z,-1.04
2023-01-21T05:37:03.866Z,-1.03
2023-01-21T05:38:03.856Z,-1.02
2023-01-21T05:39:03.844Z,-1.02
2023-01-21T05:40:03.859Z,-1.01
2023-01-21T05:41:03.829Z,-1.01
2023-01-21T05:42:03.814Z,-1.00
2023-01-21T05:43:03.771Z,-0.99
2023-01-21T05:44:03.794Z,-0.99
2023-01-21T05:45:03.769Z,-0.98
2023-01-21T05:46:03.912Z,-0.98
2023-01-21T05:47:03.718Z,-0.97
2023-01-21T05:48:03.718Z,-0.97
2023-01-21T05:49:03.722Z,-0.97
2023-01-21T05:50:03.688Z,-0.96
2023-01-21T05:51:03.735Z,-0.95
2023-01-21T05:52:03.662Z,-0.93
2023-01-21T05:53:03.639Z,-0.92
2023-01-21T05:54:03.627Z,-0.90
2023-01-21T05:55:03.616Z,-0.90
2023-01-21T05:56:03.633Z,-0.89
2023-01-21T05:57:03.619Z,-0.88
2023-01-21T05:58:03.598Z,-0.88
2023-01-21T05:59:03.567Z,-0.87
2023-01-21T06:00:03.569Z,-0.86
2023-01-21T06:01:03.561Z,-0.86
2023-01-21T06:02:03.561Z,-0.86
2023-01-21T06:03:03.535Z,-0.85
2023-01-21T06:04:03.502Z,-0.85
2023-01-21T06:05:03.516Z,-0.84
2023-01-21T06:06:03.494Z,-0.84
2023-01-21T06:07:03.524Z,-0.83
2023-01-21T06:08:03.483Z,-0.83
2023-01-21T06:09:03.447Z,-0.82
2023-01-21T06:10:03.423Z,-0.82
2023-01-21T06:11:03.425Z,-0.81
2023-01-21T06:12:03.425Z,-0.81
2023-01-21T06:13:03.404Z,-0.81
2023-01-21T06:14:03.377Z,-0.81
2023-01-21T06:15:03.382Z,-0.80
2023-01-21T06:16:03.470Z,-0.80
2023-01-21T06:17:03.373Z,-0.79
2023-01-21T06:18:03.328Z,-0.78
2023-01-21T06:19:03.322Z,-0.78
2023-01-21T06:20:03.302Z,-0.78
2023-01-21T06:21:03.324Z,-0.77
2023-01-21T06:22:03.307Z,-0.77
2023-01-21T06:23:03.292Z,-0.75
2023-01-21T06:24:03.248Z,-0.73
2023-01-21T06:25:03.266Z,-0.71
2023-01-21T06:26:03.266Z,-0.70
2023-01-21T06:27:03.235Z,-0.69
2023-01-21T06:28:03.213Z,-0.68
2023-01-21T06:29:03.213Z,-0.69
2023-01-21T06:30:03.207Z,-0.69
2023-01-21T06:31:03.296Z,-0.69
2023-01-21T06:32:03.456Z,-0.70
2023-01-21T06:33:03.172Z,-0.70
2023-01-21T06:34:03.127Z,-0.70
2023-01-21T06:35:03.111Z,-0.70
2023-01-21T06:36:03.103Z,-0.69
2023-01-21T06:37:03.102Z,-0.68
2023-01-21T06:38:03.075Z,-0.67
2023-01-21T06:39:03.088Z,-0.66
2023-01-21T06:40:03.047Z,-0.65
2023-01-21T06:41:03.045Z,-0.65
2023-01-21T06:42:03.032Z,-0.65
2023-01-21T06:43:03.045Z,-0.65
2023-01-21T06:44:03.017Z,-0.66
2023-01-21T06:45:03.004Z,-0.66
2023-01-21T06:46:03.081Z,-0.66
2023-01-21T06:47:03.023Z,-0.66
2023-01-21T06:48:02.956Z,-0.66
2023-01-21T06:49:02.959Z,-0.66
2023-01-21T06:50:02.921Z,-0.65
2023-01-21T06:51:02.936Z,-0.64
2023-01-21T06:52:02.922Z,-0.64
2023-01-21T06:53:02.913Z,-0.64
2023-01-21T06:54:02.899Z,-0.64
2023-01-21T06:55:02.870Z,-0.64
2023-01-21T06:56:02.843Z,-0.64
2023-01-21T06:57:02.840Z,-0.64
2023-01-21T06:58:02.856Z,-0.64
2023-01-21T06:59:02.803Z,-0.64
2023-01-21T07:00:02.813Z,-0.64
2023-01-21T07:01:02.824Z,-0.64
2023-01-21T07:02:02.765Z,-0.64
2023-01-21T07:03:02.862Z,-0.64
2023-01-21T07:04:02.767Z,-0.64
2023-01-21T07:05:02.865Z,-0.64
2023-01-21T07:06:02.727Z,-0.65
2023-01-21T07:07:02.705Z,-0.65
2023-01-21T07:08:02.723Z,-0.65
2023-01-21T07:09:02.699Z,-0.66
2023-01-21T07:10:02.663Z,-0.66
2023-01-21T07:11:02.674Z,-0.66
2023-01-21T07:12:02.654Z,-0.66
2023-01-21T07:13:02.662Z,-0.66
2023-01-21T07:14:02.634Z,-0.67
2023-01-21T07:15:02.617Z,-0.67
2023-01-21T07:16:04.604Z,-0.68
2023-01-21T07:17:02.601Z,-0.69
2023-01-21T07:18:02.593Z,-0.69
2023-01-21T07:19:02.586Z,-0.70
2023-01-21T07:20:02.602Z,-0.71
2023-01-21T07:21:02.601Z,-0.72
2023-01-21T07:22:02.531Z,-0.72
2023-01-21T07:23:02.526Z,-0.73
2023-01-21T07:24:02.492Z,-0.74
2023-01-21T07:25:02.480Z,-0.75
2023-01-21T07:26:02.465Z,-0.75
2023-01-21T07:27:02.474Z,-0.76
2023-01-21T07:28:02.482Z,-0.77
2023-01-21T07:29:02.492Z,-0.79
2023-01-21T07:30:02.454Z,-0.80
2023-01-21T07:31:02.518Z,-0.80
2023-01-21T07:32:02.421Z,-0.80
2023-01-21T07:33:02.380Z,-0.80
2023-01-21T07:34:02.401Z,-0.80
2023-01-21T07:35:02.401Z,-0.80
2023-01-21T07:36:02.374Z,-0.79
2023-01-21T07:37:02.344Z,-0.78
2023-01-21T07:38:02.344Z,-0.77
2023-01-21T07:39:02.316Z,-0.76
2023-01-21T07:40:02.342Z,-0.76
2023-01-21T07:41:02.315Z,-0.75
2023-01-21T07:42:02.287Z,-0.74
2023-01-21T07:43:02.291Z,-0.72
2023-01-21T07:44:02.285Z,-0.71
2023-01-21T07:45:02.260Z,-0.70
2023-01-21T07:46:02.238Z,-0.69
2023-01-21T07:47:02.210Z,-0.69
2023-01-21T07:48:02.216Z,-0.68
2023-01-21T07:49:02.197Z,-0.68
2023-01-21T07:50:02.168Z,-0.67
2023-01-21T07:51:02.196Z,-0.67
2023-01-21T07:52:02.150Z,-0.66
2023-01-21T07:53:02.140Z,-0.66
2023-01-21T07:54:02.141Z,-0.65
2023-01-21T07:55:02.117Z,-0.65
2023-01-21T07:56:02.111Z,-0.65
2023-01-21T07:57:02.092Z,-0.64
2023-01-21T07:58:02.086Z,-0.64
2023-01-21T07:59:02.084Z,-0.63
2023-01-21T08:00:02.056Z,-0.62
2023-01-21T08:01:02.033Z,-0.61
2023-01-21T08:02:02.088Z,-0.60
2023-01-21T08:03:02.035Z,-0.58
2023-01-21T08:04:01.995Z,-0.57
2023-01-21T08:05:02.001Z,-0.56
2023-01-21T08:06:01.991Z,-0.55
2023-01-21T08:07:01.998Z,-0.54
2023-01-21T08:08:01.958Z,-0.53
2023-01-21T08:09:01.931Z,-0.51
2023-01-21T08:10:01.938Z,-0.50
2023-01-21T08:11:01.901Z,-0.49
2023-01-21T08:12:01.906Z,-0.49
2023-01-21T08:13:01.960Z,-0.49
2023-01-21T08:14:01.879Z,-0.49
2023-01-21T08:15:01.856Z,-0.48
2023-01-21T08:16:01.883Z,-0.48
2023-01-21T08:17:01.884Z,-0.48
2023-01-21T08:18:01.855Z,-0.47
2023-01-21T08:19:01.824Z,-0.47
2023-01-21T08:20:01.849Z,-0.46
2023-01-21T08:21:01.806Z,-0.45
2023-01-21T08:22:01.790Z,-0.44
2023-01-21T08:23:01.816Z,-0.43
2023-01-21T08:24:01.760Z,-0.42
2023-01-21T08:25:01.776Z,-0.40
2023-01-21T08:26:01.759Z,-0.39
2023-01-21T08:27:01.837Z,-0.38
2023-01-21T08:28:01.693Z,-0.37
2023-01-21T08:29:01.701Z,-0.36
2023-01-21T08:30:01.723Z,-0.36
2023-01-21T08:31:01.716Z,-0.35
2023-01-21T08:32:01.685Z,-0.34
2023-01-21T08:33:01.680Z,-0.34
2023-01-21T08:34:01.640Z,-0.33
2023-01-21T08:35:01.632Z,-0.32
2023-01-21T08:36:01.623Z,-0.30
2023-01-21T08:37:01.601Z,-0.29
2023-01-21T08:38:01.579Z,-0.27
2023-01-21T08:39:01.576Z,-0.26
2023-01-21T08:40:01.566Z,-0.25
2023-01-21T08:41:01.593Z,-0.24
2023-01-21T08:42:01.644Z,-0.22
2023-01-21T08:43:01.558Z,-0.21
2023-01-21T08:44:01.556Z,-0.20
2023-01-21T08:45:01.540Z,-0.19
2023-01-21T08:46:01.663Z,-0.19
2023-01-21T08:47:01.482Z,-0.19
2023-01-21T08:48:01.437Z,-0.19
2023-01-21T08:49:01.429Z,-0.18
2023-01-21T08:50:01.416Z,-0.18
2023-01-21T08:51:01.474Z,-0.17
2023-01-21T08:52:01.463Z,-0.15
2023-01-21T08:53:01.429Z,-0.14
2023-01-21T08:54:01.405Z,-0.15
2023-01-21T08:55:01.366Z,-0.15
2023-01-21T08:56:01.376Z,-0.16
2023-01-21T08:57:01.395Z,-0.16
2023-01-21T08:58:01.316Z,-0.15
2023-01-21T08:59:01.331Z,-0.15
2023-01-21T09:00:01.308Z,-0.15
2023-01-21T09:01:01.292Z,-0.14
2023-01-21T09:02:01.440Z,-0.13
2023-01-21T09:03:01.277Z,-0.12
2023-01-21T09:04:01.273Z,-0.11
2023-01-21T09:05:01.248Z,-0.10
2023-01-21T09:06:01.219Z,-0.09
2023-01-21T09:07:01.239Z,-0.07
2023-01-21T09:08:01.196Z,-0.05
2023-01-21T09:09:01.227Z,-0.04
2023-01-21T09:10:01.164Z,-0.02
2023-01-21T09:11:01.171Z,-0.00
2023-01-21T09:12:01.168Z,0.02
2023-01-21T09:13:01.141Z,0.03
2023-01-21T09:14:01.129Z,0.04
2023-01-21T09:15:01.129Z,0.05
2023-01-21T09:16:01.087Z,0.06
2023-01-21T09:17:01.121Z,0.07
2023-01-21T09:18:01.081Z,0.09
2023-01-21T09:19:01.056Z,0.12
2023-01-21T09:20:01.064Z,0.15
2023-01-21T09:21:01.043Z,0.17
2023-01-21T09:22:01.009Z,0.18
2023-01-21T09:23:01.082Z,0.19
2023-01-21T09:24:00.975Z,0.19
2023-01-21T09:25:00.998Z,0.18
2023-01-21T09:26:01.035Z,0.17
2023-01-21T09:27:00.984Z,0.18
2023-01-21T09:28:00.963Z,0.19
2023-01-21T09:29:00.990Z,0.19
2023-01-21T09:30:00.943Z,0.20
2023-01-21T09:31:00.968Z,0.23
2023-01-21T09:32:01.013Z,0.26
2023-01-21T09:33:00.881Z,0.27
2023-01-21T09:34:00.874Z,0.27
2023-01-21T09:35:00.866Z,0.28
2023-01-21T09:36:00.862Z,0.28
2023-01-21T09:37:00.852Z,0.29
2023-01-21T09:38:00.798Z,0.30
2023-01-21T09:39:00.832Z,0.31
2023-01-21T09:40:00.832Z,0.33
2023-01-21T09:41:00.805Z,0.35
2023-01-21T09:42:00.796Z,0.35
2023-01-21T09:43:00.747Z,0.37
2023-01-21T09:44:00.830Z,0.39
2023-01-21T09:45:00.719Z,0.41
2023-01-21T09:46:03.016Z,0.41
2023-01-21T09:47:00.726Z,0.42
2023-01-21T09:48:00.696Z,0.44
2023-01-21T09:49:00.666Z,0.46
2023-01-21T09:50:00.649Z,0.46
2023-01-21T09:51:00.684Z,0.49
2023-01-21T09:52:00.626Z,0.51
2023-01-21T09:53:00.613Z,0.52
2023-01-21T09:54:00.587Z,0.54
2023-01-21T09:55:00.573Z,0.58
2023-01-21T09:56:00.568Z,0.63
2023-01-21T09:57:00.557Z,0.64
2023-01-21T09:58:00.628Z,0.63
2023-01-21T09:59:00.550Z,0.62
2023-01-21T10:00:00.506Z,0.61
2023-01-21T10:01:00.541Z,0.63
2023-01-21T10:02:00.479Z,0.64
2023-01-21T10:03:00.492Z,0.63
2023-01-21T10:04:00.475Z,0.62
2023-01-21T10:05:00.471Z,0.61
2023-01-21T10:06:00.428Z,0.62
2023-01-21T10:07:00.444Z,0.62
2023-01-21T10:08:00.423Z,0.63
2023-01-21T10:09:00.415Z,0.64
2023-01-21T10:10:00.411Z,0.65
2023-01-21T10:11:00.361Z,0.65
2023-01-21T10:12:00.358Z,0.66
2023-01-21T10:13:00.335Z,0.68
2023-01-21T10:14:00.388Z,0.69
2023-01-21T10:15:00.321Z,0.71
2023-01-21T10:16:00.341Z,0.71
2023-01-21T10:17:00.357Z,0.73
2023-01-21T10:18:00.294Z,0.75
2023-01-21T10:19:00.295Z,0.76
2023-01-21T10:20:00.267Z,0.78
2023-01-21T10:21:00.271Z,0.81
2023-01-21T10:22:00.230Z,0.83
2023-01-21T10:23:00.229Z,0.84
2023-01-21T10:24:00.226Z,0.85
2023-01-21T10:25:00.197Z,0.86
2023-01-21T10:26:00.194Z,0.87
2023-01-21T10:27:00.183Z,0.88
2023-01-21T10:28:00.149Z,0.89
2023-01-21T10:29:00.136Z,0.89
2023-01-21T10:30:00.183Z,0.91
2023-01-21T10:31:00.203Z,0.92
2023-01-21T10:32:00.116Z,0.93
2023-01-21T10:33:00.093Z,0.95
2023-01-21T10:34:00.100Z,0.98
2023-01-21T10:35:00.061Z,0.99
2023-01-21T10:36:00.059Z,1.01
2023-01-21T10:37:00.051Z,1.02
2023-01-21T10:38:00.019Z,1.05
2023-01-21T10:39:00.014Z,1.07
2023-01-21T10:39:59.989Z,1.08
2023-01-21T10:41:00.001Z,1.09
2023-01-21T10:41:59.988Z,1.11
2023-01-21T10:42:59.958Z,1.14
2023-01-21T10:43:59.962Z,1.16
2023-01-21T10:44:59.939Z,1.19
2023-01-21T10:46:00.038Z,1.21
2023-01-21T10:46:59.932Z,1.23
2023-01-21T10:47:59.913Z,1.25
2023-01-21T10:48:59.907Z,1.27
2023-01-21T10:49:59.886Z,1.31
2023-01-21T10:50:59.890Z,1.33
2023-01-21T10:51:59.860Z,1.34
2023-01-21T10:52:59.836Z,1.35
2023-01-21T10:53:59.835Z,1.37
2023-01-21T10:54:59.797Z,1.42
2023-01-21T10:55:59.821Z,1.46
2023-01-21T10:56:59.790Z,1.50
2023-01-21T10:57:59.827Z,1.52
2023-01-21T10:58:59.781Z,1.51
2023-01-21T10:59:59.775Z,1.48
2023-01-21T11:00:59.823Z,1.46
2023-01-21T11:01:59.761Z,1.44
2023-01-21T11:02:59.710Z,1.42
2023-01-21T11:03:59.745Z,1.43
2023-01-21T11:04:59.686Z,1.44
2023-01-21T11:05:59.667Z,1.44
2023-01-21T11:06:59.658Z,1.45
2023-01-21T11:07:59.661Z,1.46
2023-01-21T11:08:59.637Z,1.47
2023-01-21T11:09:59.617Z,1.49
2023-01-21T11:10:59.592Z,1.51
2023-01-21T11:11:59.606Z,1.51
2023-01-21T11:12:59.605Z,1.50
2023-01-21T11:13:59.583Z,1.49
2023-01-21T11:14:59.572Z,1.48
2023-01-21T11:15:59.612Z,1.50
2023-01-21T11:16:59.544Z,1.51
2023-01-21T11:17:59.557Z,1.52
2023-01-21T11:18:59.502Z,1.53
2023-01-21T11:19:59.519Z,1.55
2023-01-21T11:20:59.486Z,1.58
2023-01-21T11:21:59.474Z,1.61
2023-01-21T11:22:59.461Z,1.64
2023-01-21T11:23:59.466Z,1.66
2023-01-21T11:24:59.443Z,1.67
2023-01-21T11:25:59.411Z,1.66
2023-01-21T11:26:59.393Z,1.67
2023-01-21T11:27:59.391Z,1.70
2023-01-21T11:28:59.380Z,1.72
2023-01-21T11:29:59.368Z,1.74
2023-01-21T11:30:59.482Z,1.77
2023-01-21T11:31:59.556Z,1.80
2023-01-21T11:32:59.345Z,1.84
2023-01-21T11:33:59.316Z,1.85
2023-01-21T11:34:59.328Z,1.84
2023-01-21T11:35:59.319Z,1.83
2023-01-21T11:36:59.354Z,1.82
2023-01-21T11:37:59.278Z,1.82
2023-01-21T11:38:59.264Z,1.83
2023-01-21T11:39:59.378Z,1.85
2023-01-21T11:40:59.249Z,1.88
2023-01-21T11:41:59.198Z,1.91
2023-01-21T11:42:59.230Z,1.93
2023-01-21T11:43:59.186Z,1.95
2023-01-21T11:44:59.255Z,1.97
2023-01-21T11:45:59.211Z,1.99
2023-01-21T11:46:59.167Z,2.01
2023-01-21T11:47:59.116Z,2.01
2023-01-21T11:48:59.117Z,2.02
2023-01-21T11:49:59.188Z,2.01
2023-01-21T11:50:59.111Z,2.02
2023-01-21T11:51:59.113Z,2.03
2023-01-21T11:53:01.857Z,2.04
2023-01-21T11:53:59.056Z,2.05
2023-01-21T11:54:59.071Z,2.06
2023-01-21T11:55:59.048Z,2.06
2023-01-21T11:56:59.001Z,2.05
2023-01-21T11:57:59.024Z,2.04
2023-01-21T11:58:58.962Z,2.04
2023-01-21T11:59:59.081Z,2.06
2023-01-21T12:00:58.944Z,2.08
2023-01-21T12:01:58.990Z,2.09
2023-01-21T12:02:59.003Z,2.09
2023-01-21T12:03:58.914Z,2.09
2023-01-21T12:04:58.892Z,2.11
2023-01-21T12:05:58.931Z,2.11
2023-01-21T12:06:58.883Z,2.11
2023-01-21T12:07:58.872Z,2.12
2023-01-21T12:08:58.849Z,2.13
2023-01-21T12:09:58.845Z,2.14
2023-01-21T12:10:58.813Z,2.17
2023-01-21T12:11:58.831Z,2.19
2023-01-21T12:12:58.872Z,2.21
2023-01-21T12:13:58.788Z,2.23
2023-01-21T12:14:58.814Z,2.25
2023-01-21T12:15:59.253Z,2.30
2023-01-21T12:16:58.774Z,2.33
2023-01-21T12:17:58.784Z,2.34
2023-01-21T12:18:58.728Z,2.35
2023-01-21T12:19:58.721Z,2.37
2023-01-21T12:20:58.689Z,2.39
2023-01-21T12:21:58.696Z,2.41
2023-01-21T12:22:58.678Z,2.44
2023-01-21T12:23:58.691Z,2.47
2023-01-21T12:24:58.679Z,2.50
2023-01-21T12:25:58.644Z,2.53
2023-01-21T12:26:58.633Z,2.55
2023-01-21T12:27:58.615Z,2.57
2023-01-21T12:28:58.593Z,2.58
2023-01-21T12:29:58.601Z,2.60
2023-01-21T12:30:58.737Z,2.63
2023-01-21T12:31:58.641Z,2.65
2023-01-21T12:32:58.523Z,2.66
2023-01-21T12:33:58.520Z,2.68
2023-01-21T12:34:58.565Z,2.70
2023-01-21T12:35:58.520Z,2.72
2023-01-21T12:36:58.477Z,2.74
2023-01-21T12:37:58.481Z,2.75
2023-01-21T12:38:58.469Z,2.75
2023-01-21T12:39:58.439Z,2.74
2023-01-21T12:40:58.436Z,2.74
2023-01-21T12:41:58.443Z,2.75
2023-01-21T12:42:58.438Z,2.76
2023-01-21T12:43:58.411Z,2.77
2023-01-21T12:44:58.438Z,2.78
2023-01-21T12:45:58.368Z,2.78
2023-01-21T12:46:58.447Z,2.77
2023-01-21T12:47:58.361Z,2.78
2023-01-21T12:48:59.042Z,2.79
2023-01-21T12:49:58.336Z,2.79
2023-01-21T12:50:58.348Z,2.79
2023-01-21T12:51:58.297Z,2.78
2023-01-21T12:52:58.297Z,2.78
2023-01-21T12:53:58.281Z,2.77
2023-01-21T12:54:58.373Z,2.76
2023-01-21T12:55:58.324Z,2.75
2023-01-21T12:56:58.294Z,2.74
2023-01-21T12:57:58.224Z,2.73
2023-01-21T12:58:58.205Z,2.72
2023-01-21T12:59:58.217Z,2.72